Portada
METAR-TAF:

METAR-TAF

Aeroports :

Aeroport de Bilbao

Bilbao, Espanya

latitud: 43-18N, longitud: 002-56W, altitud: 42 m

Observació

L'informe es va fer fa 28 minuts, a les 07:30 UTC
Vent 3 kt del Est, variant entre Nord i Sud/Sud-Est
Temperatura 21°C
Humitat 73%
Pressió 1018 hPa
Visibilitat 10 km o més
sense núvols per sota de 1500 mi sense presència de cumulonimbus.

METAR: LEBB 250730Z 10003KT 350V150 CAVOK 21/16 Q1018 NOSIG

Hora: 09:58 (07:58 UTC)

Pronòstic

L'informe es va fer fa 2 hores i 58 minuts, a les 05:00 UTC
Pronòstic vàlid del 25 a les 06 UTC al 26 a les 06 UTC
Vent 4 kt amb direcció variable
Visibilitat 10 km o més
sense núvols per sota de 1500 mi sense presència de cumulonimbus.
Temporalment
l' 25 a les 12 UTC al 25 a les 18 UTC
Vent 10 kt del Nord/Nord-Est
Probabilitat 40% :
Temporalment
l' 25 a les 12 UTC al 25 a les 18 UTC
Vent 10 kt del Nord/Nord-Oest

TAF: LEBB 250500Z 2506/2606 VRB04KT CAVOK TX30/2513Z TN15/2506Z TEMPO 2512/2518 03010KT PROB40 TEMPO 2512/2518 33010KT

Observacions i pronòstics meteorològics de més de 4000 aeroports (METAR i TAF).

Les estacions disponibles són els punts grocs i vermells al mapa.

Posi el ratolí al punt desitjat per veure el nom de l'estació.

Feu clic per veure les observacions i els pronòstics meteorològics.

Per canviar el mapa: feu clic els botons verds amb una creu de color negre per apropar; al botó verd amb un guió per allunyar la imatge; o en les fletxes verdes per a mapes adjacents.


METAR-TAF: